sensor_id;sensor_type;location;lat;lon;timestamp;P1;durP1;ratioP1;P2;durP2;ratioP2
69026;SDS011;56080;47.594;19.116;2023-05-01T00:03:03;9.50;;;6.40;;
69026;SDS011;56080;47.594;19.116;2023-05-01T00:13:04;10.20;;;6.30;;
69026;SDS011;56080;47.594;19.116;2023-05-01T00:23:04;10.10;;;6.30;;
69026;SDS011;56080;47.594;19.116;2023-05-01T00:33:05;11.30;;;6.60;;
69026;SDS011;56080;47.594;19.116;2023-05-01T00:43:06;9.70;;;6.20;;
69026;SDS011;56080;47.594;19.116;2023-05-01T00:53:07;8.80;;;5.40;;
69026;SDS011;56080;47.594;19.116;2023-05-01T01:03:08;11.00;;;7.00;;
69026;SDS011;56080;47.594;19.116;2023-05-01T01:13:11;10.40;;;6.60;;
69026;SDS011;56080;47.594;19.116;2023-05-01T01:23:21;10.20;;;6.70;;
69026;SDS011;56080;47.594;19.116;2023-05-01T01:43:12;8.60;;;5.60;;
69026;SDS011;56080;47.594;19.116;2023-05-01T01:53:14;8.20;;;4.90;;
69026;SDS011;56080;47.594;19.116;2023-05-01T02:03:13;7.80;;;4.90;;
69026;SDS011;56080;47.594;19.116;2023-05-01T02:13:14;7.90;;;4.60;;
69026;SDS011;56080;47.594;19.116;2023-05-01T02:23:15;7.70;;;4.90;;
69026;SDS011;56080;47.594;19.116;2023-05-01T02:33:15;9.50;;;6.00;;
69026;SDS011;56080;47.594;19.116;2023-05-01T02:43:19;9.00;;;5.40;;
69026;SDS011;56080;47.594;19.116;2023-05-01T02:53:17;8.40;;;5.10;;
69026;SDS011;56080;47.594;19.116;2023-05-01T03:03:17;9.00;;;5.60;;
69026;SDS011;56080;47.594;19.116;2023-05-01T03:13:20;8.80;;;6.10;;
69026;SDS011;56080;47.594;19.116;2023-05-01T03:23:19;10.40;;;6.50;;
69026;SDS011;56080;47.594;19.116;2023-05-01T03:33:20;10.60;;;6.30;;
69026;SDS011;56080;47.594;19.116;2023-05-01T03:43:21;8.80;;;5.60;;
69026;SDS011;56080;47.594;19.116;2023-05-01T03:53:22;8.20;;;5.00;;
69026;SDS011;56080;47.594;19.116;2023-05-01T04:03:22;8.50;;;5.10;;
69026;SDS011;56080;47.594;19.116;2023-05-01T04:13:22;9.80;;;6.40;;
69026;SDS011;56080;47.594;19.116;2023-05-01T04:23:23;8.70;;;5.20;;
69026;SDS011;56080;47.594;19.116;2023-05-01T04:33:24;8.00;;;5.10;;
69026;SDS011;56080;47.594;19.116;2023-05-01T04:43:24;7.70;;;5.20;;
69026;SDS011;56080;47.594;19.116;2023-05-01T04:53:25;8.80;;;6.20;;
69026;SDS011;56080;47.594;19.116;2023-05-01T05:03:28;9.00;;;5.30;;
69026;SDS011;56080;47.594;19.116;2023-05-01T05:13:27;9.90;;;6.20;;
69026;SDS011;56080;47.594;19.116;2023-05-01T05:23:27;9.10;;;6.40;;
69026;SDS011;56080;47.594;19.116;2023-05-01T05:33:28;8.20;;;5.80;;
69026;SDS011;56080;47.594;19.116;2023-05-01T05:43:29;7.20;;;5.00;;
69026;SDS011;56080;47.594;19.116;2023-05-01T05:53:31;8.50;;;5.70;;
69026;SDS011;56080;47.594;19.116;2023-05-01T06:03:32;8.00;;;4.30;;
69026;SDS011;56080;47.594;19.116;2023-05-01T06:13:33;6.50;;;4.00;;
69026;SDS011;56080;47.594;19.116;2023-05-01T06:23:35;6.30;;;3.50;;
69026;SDS011;56080;47.594;19.116;2023-05-01T06:33:36;6.40;;;3.60;;
69026;SDS011;56080;47.594;19.116;2023-05-01T06:43:40;8.30;;;3.10;;
69026;SDS011;56080;47.594;19.116;2023-05-01T06:53:39;7.00;;;2.80;;
69026;SDS011;56080;47.594;19.116;2023-05-01T07:03:40;5.60;;;2.50;;
69026;SDS011;56080;47.594;19.116;2023-05-01T07:13:42;5.70;;;2.40;;
69026;SDS011;56080;47.594;19.116;2023-05-01T07:23:44;5.60;;;2.70;;
69026;SDS011;56080;47.594;19.116;2023-05-01T07:33:46;5.90;;;2.40;;
69026;SDS011;56080;47.594;19.116;2023-05-01T07:43:48;5.50;;;2.40;;
69026;SDS011;56080;47.594;19.116;2023-05-01T07:53:51;5.40;;;2.30;;
69026;SDS011;56080;47.594;19.116;2023-05-01T08:13:54;5.70;;;2.20;;
69026;SDS011;56080;47.594;19.116;2023-05-01T08:23:56;5.20;;;2.20;;
69026;SDS011;56080;47.594;19.116;2023-05-01T08:33:57;5.10;;;2.30;;
69026;SDS011;56080;47.594;19.116;2023-05-01T08:44:00;5.90;;;2.60;;
69026;SDS011;56080;47.594;19.116;2023-05-01T08:54:03;5.80;;;2.20;;
69026;SDS011;56080;47.594;19.116;2023-05-01T09:04:04;5.60;;;2.20;;
69026;SDS011;56080;47.594;19.116;2023-05-01T09:14:06;4.60;;;2.00;;
69026;SDS011;56080;47.594;19.116;2023-05-01T09:24:06;5.10;;;2.10;;
69026;SDS011;56080;47.594;19.116;2023-05-01T09:34:09;5.40;;;2.50;;
69026;SDS011;56080;47.594;19.116;2023-05-01T09:44:16;6.30;;;2.10;;
69026;SDS011;56080;47.594;19.116;2023-05-01T09:54:16;4.30;;;2.10;;
69026;SDS011;56080;47.594;19.116;2023-05-01T10:04:13;4.40;;;1.80;;
69026;SDS011;56080;47.594;19.116;2023-05-01T10:14:16;5.40;;;1.90;;
69026;SDS011;56080;47.594;19.116;2023-05-01T10:34:19;5.30;;;2.30;;
69026;SDS011;56080;47.594;19.116;2023-05-01T10:44:29;4.60;;;1.90;;
69026;SDS011;56080;47.594;19.116;2023-05-01T10:54:21;4.30;;;2.00;;
69026;SDS011;56080;47.594;19.116;2023-05-01T11:04:44;5.70;;;2.30;;
69026;SDS011;56080;47.594;19.116;2023-05-01T11:14:25;4.60;;;1.80;;
69026;SDS011;56080;47.594;19.116;2023-05-01T11:24:31;4.80;;;2.00;;
69026;SDS011;56080;47.594;19.116;2023-05-01T11:34:27;4.90;;;1.90;;
69026;SDS011;56080;47.594;19.116;2023-05-01T11:44:28;4.80;;;1.90;;
69026;SDS011;56080;47.594;19.116;2023-05-01T11:54:30;4.40;;;2.00;;
69026;SDS011;56080;47.594;19.116;2023-05-01T12:04:33;4.00;;;1.80;;
69026;SDS011;56080;47.594;19.116;2023-05-01T12:14:33;4.70;;;2.00;;
69026;SDS011;56080;47.594;19.116;2023-05-01T12:24:35;4.90;;;2.20;;
69026;SDS011;56080;47.594;19.116;2023-05-01T12:34:38;4.60;;;1.90;;
69026;SDS011;56080;47.594;19.116;2023-05-01T12:44:40;4.30;;;1.70;;
69026;SDS011;56080;47.594;19.116;2023-05-01T12:54:42;4.40;;;2.10;;
69026;SDS011;56080;47.594;19.116;2023-05-01T13:04:42;4.60;;;1.90;;
69026;SDS011;56080;47.594;19.116;2023-05-01T13:24:44;4.40;;;1.70;;
69026;SDS011;56080;47.594;19.116;2023-05-01T13:34:50;4.00;;;1.60;;
69026;SDS011;56080;47.594;19.116;2023-05-01T13:44:56;3.90;;;1.40;;
69026;SDS011;56080;47.594;19.116;2023-05-01T13:54:49;5.00;;;1.60;;
69026;SDS011;56080;47.594;19.116;2023-05-01T14:04:50;4.00;;;1.50;;
69026;SDS011;56080;47.594;19.116;2023-05-01T14:14:56;4.10;;;1.70;;
69026;SDS011;56080;47.594;19.116;2023-05-01T14:24:53;3.60;;;1.30;;
69026;SDS011;56080;47.594;19.116;2023-05-01T14:34:55;3.70;;;1.30;;
69026;SDS011;56080;47.594;19.116;2023-05-01T14:44:55;4.10;;;1.50;;
69026;SDS011;56080;47.594;19.116;2023-05-01T14:54:57;4.00;;;1.50;;
69026;SDS011;56080;47.594;19.116;2023-05-01T15:04:59;3.40;;;1.30;;
69026;SDS011;56080;47.594;19.116;2023-05-01T15:15:00;4.80;;;1.40;;
69026;SDS011;56080;47.594;19.116;2023-05-01T15:25:02;3.70;;;1.50;;
69026;SDS011;56080;47.594;19.116;2023-05-01T15:35:05;4.10;;;1.40;;
69026;SDS011;56080;47.594;19.116;2023-05-01T15:45:05;4.30;;;1.30;;
69026;SDS011;56080;47.594;19.116;2023-05-01T15:55:07;3.50;;;1.30;;
69026;SDS011;56080;47.594;19.116;2023-05-01T16:05:09;3.60;;;1.30;;
69026;SDS011;56080;47.594;19.116;2023-05-01T16:15:10;3.80;;;1.40;;
69026;SDS011;56080;47.594;19.116;2023-05-01T16:25:12;4.40;;;1.30;;
69026;SDS011;56080;47.594;19.116;2023-05-01T16:35:15;4.00;;;1.30;;
69026;SDS011;56080;47.594;19.116;2023-05-01T16:45:17;3.80;;;1.40;;
69026;SDS011;56080;47.594;19.116;2023-05-01T16:55:16;4.00;;;1.50;;
69026;SDS011;56080;47.594;19.116;2023-05-01T17:05:18;4.10;;;1.50;;
69026;SDS011;56080;47.594;19.116;2023-05-01T17:15:19;4.00;;;1.30;;
69026;SDS011;56080;47.594;19.116;2023-05-01T17:25:21;3.80;;;1.20;;
69026;SDS011;56080;47.594;19.116;2023-05-01T17:35:22;3.90;;;1.40;;
69026;SDS011;56080;47.594;19.116;2023-05-01T17:45:23;4.30;;;1.50;;
69026;SDS011;56080;47.594;19.116;2023-05-01T17:55:28;4.00;;;1.70;;
69026;SDS011;56080;47.594;19.116;2023-05-01T18:05:26;3.90;;;1.30;;
69026;SDS011;56080;47.594;19.116;2023-05-01T18:25:29;4.60;;;1.70;;
69026;SDS011;56080;47.594;19.116;2023-05-01T18:35:31;5.60;;;1.70;;
69026;SDS011;56080;47.594;19.116;2023-05-01T18:45:33;4.20;;;1.60;;
69026;SDS011;56080;47.594;19.116;2023-05-01T18:55:34;4.70;;;1.70;;
69026;SDS011;56080;47.594;19.116;2023-05-01T19:15:37;5.00;;;1.90;;
69026;SDS011;56080;47.594;19.116;2023-05-01T19:25:41;6.00;;;2.10;;
69026;SDS011;56080;47.594;19.116;2023-05-01T19:35:40;5.70;;;2.40;;
69026;SDS011;56080;47.594;19.116;2023-05-01T19:45:41;5.90;;;2.30;;
69026;SDS011;56080;47.594;19.116;2023-05-01T19:55:42;6.30;;;2.80;;
69026;SDS011;56080;47.594;19.116;2023-05-01T20:05:44;5.90;;;2.60;;
69026;SDS011;56080;47.594;19.116;2023-05-01T20:15:46;5.80;;;2.50;;
69026;SDS011;56080;47.594;19.116;2023-05-01T20:25:46;5.10;;;2.10;;
69026;SDS011;56080;47.594;19.116;2023-05-01T20:35:47;6.10;;;2.90;;
69026;SDS011;56080;47.594;19.116;2023-05-01T20:45:51;6.90;;;3.60;;
69026;SDS011;56080;47.594;19.116;2023-05-01T20:55:49;7.00;;;3.40;;
69026;SDS011;56080;47.594;19.116;2023-05-01T21:05:50;7.30;;;3.60;;
69026;SDS011;56080;47.594;19.116;2023-05-01T21:15:51;7.40;;;4.10;;
69026;SDS011;56080;47.594;19.116;2023-05-01T21:35:54;8.00;;;3.70;;
69026;SDS011;56080;47.594;19.116;2023-05-01T21:45:55;7.80;;;4.10;;
69026;SDS011;56080;47.594;19.116;2023-05-01T21:55:56;7.10;;;3.80;;
69026;SDS011;56080;47.594;19.116;2023-05-01T22:05:57;8.40;;;3.70;;
69026;SDS011;56080;47.594;19.116;2023-05-01T22:15:58;7.40;;;3.60;;
69026;SDS011;56080;47.594;19.116;2023-05-01T22:25:58;6.50;;;3.20;;
69026;SDS011;56080;47.594;19.116;2023-05-01T22:35:59;7.20;;;3.10;;
69026;SDS011;56080;47.594;19.116;2023-05-01T22:46:01;5.80;;;2.60;;
69026;SDS011;56080;47.594;19.116;2023-05-01T23:06:02;5.90;;;2.60;;
69026;SDS011;56080;47.594;19.116;2023-05-01T23:16:03;6.90;;;2.40;;
69026;SDS011;56080;47.594;19.116;2023-05-01T23:26:04;6.40;;;2.70;;
69026;SDS011;56080;47.594;19.116;2023-05-01T23:36:06;4.90;;;2.50;;
69026;SDS011;56080;47.594;19.116;2023-05-01T23:46:06;5.80;;;2.70;;
69026;SDS011;56080;47.594;19.116;2023-05-01T23:56:08;6.80;;;3.20;;
